| time (UTC) | temp F | wind direction | speed MPH | gust MPH | rain 1hr in | rain 24hr in | rain mn in | humidity % | barometer mb |
| 20260505230019 | 63 | 161 | 6.0 | 16.0 | 0.00 | 0.00 | 0.00 | 74 | 1008.9 |
| 20260505224514 | 62 | 178 | 4.0 | 12.0 | 0.00 | 0.00 | 0.00 | 74 | 1009.0 |
| 20260505223016 | 62 | 211 | 5.0 | 18.0 | 0.00 | 0.00 | 0.00 | 74 | 1008.8 |
| 20260505221505 | 63 | 163 | 6.0 | 16.0 | 0.00 | 0.00 | 0.00 | 72 | 1008.8 |
| 20260505220108 | 64 | 167 | 5.0 | 14.0 | 0.00 | 0.00 | 0.00 | 72 | 1008.6 |
| 20260505214558 | 64 | 187 | 5.0 | 16.0 | 0.00 | 0.00 | 0.00 | 71 | 1008.6 |
| 20260505213050 | 64 | 174 | 5.0 | 18.0 | 0.00 | 0.00 | 0.00 | 71 | 1008.7 |
| 20260505211546 | 64 | 221 | 5.0 | 16.0 | 0.00 | 0.00 | 0.00 | 71 | 1008.4 |
| 20260505210049 | 64 | 200 | 6.0 | 16.0 | 0.00 | 0.00 | 0.00 | 72 | 1008.4 |
| 20260505204542 | 64 | 226 | 4.0 | 16.0 | 0.00 | 0.00 | 0.00 | 72 | 1008.5 |
| 20260505203034 | 65 | 203 | 4.0 | 14.0 | 0.00 | 0.00 | 0.00 | 71 | 1008.6 |
| 20260505201528 | 65 | 165 | 4.0 | 8.0 | 0.00 | 0.00 | 0.00 | 70 | 1008.6 |
| 20260505200024 | 65 | 191 | 5.0 | 14.0 | 0.00 | 0.00 | 0.00 | 71 | 1008.8 |
| 20260505194522 | 65 | 157 | 5.0 | 12.0 | 0.00 | 0.00 | 0.00 | 71 | 1009.1 |
| 20260505193025 | 66 | 211 | 5.0 | 15.0 | 0.00 | 0.00 | 0.00 | 69 | 1009.2 |
| 20260505191512 | 65 | 115 | 4.0 | 11.0 | 0.00 | 0.00 | 0.00 | 71 | 1009.6 |
| 20260505190008 | 65 | 168 | 4.0 | 14.0 | 0.00 | 0.00 | 0.00 | 71 | 1009.8 |
| 20260505184502 | 65 | 151 | 4.0 | 16.0 | 0.00 | 0.00 | 0.00 | 71 | 1010.2 |
| 20260505183059 | 66 | 227 | 4.0 | 11.0 | 0.00 | 0.00 | 0.00 | 70 | 1010.3 |
| 20260505181553 | 66 | 161 | 4.0 | 14.0 | 0.00 | 0.00 | 0.00 | 71 | 1010.5 |
| 20260505180049 | 65 | 103 | 3.0 | 11.0 | 0.00 | 0.00 | 0.00 | 72 | 1010.5 |
| 20260505174544 | 66 | 148 | 4.0 | 12.0 | 0.00 | 0.00 | 0.00 | 72 | 1010.6 |
| 20260505173040 | 66 | 167 | 3.0 | 12.0 | 0.00 | 0.00 | 0.00 | 71 | 1010.7 |
| 20260505171544 | 67 | 177 | 1.0 | 12.0 | 0.00 | 0.00 | 0.00 | 70 | 1010.8 |
| 20260505170039 | 67 | 158 | 2.0 | 11.0 | 0.00 | 0.00 | 0.00 | 69 | 1010.8 |
| 20260505164553 | 68 | 231 | 1.0 | 9.0 | 0.00 | 0.00 | 0.00 | 69 | 1010.9 |
| 20260505163037 | 67 | 134 | 1.0 | 8.0 | 0.00 | 0.00 | 0.00 | 70 | 1010.9 |
| 20260505161548 | 69 | 252 | 2.0 | 8.0 | 0.00 | 0.00 | 0.00 | 68 | 1011.2 |
| 20260505153024 | 67 | 128 | 1.0 | 5.0 | 0.00 | 0.00 | 0.00 | 71 | 1011.4 |
| 20260505151519 | 66 | 127 | 2.0 | 9.0 | 0.00 | 0.00 | 0.00 | 72 | 1011.6 |
| 20260505124559 | 61 | 139 | 0.0 | 5.0 | 0.00 | 0.00 | 0.00 | 83 | 1011.2 |
| 20260505123055 | 59 | 142 | 1.0 | 4.0 | 0.00 | 0.00 | 0.00 | 87 | 1011.2 |
| 20260505121546 | 57 | 143 | 1.0 | 4.0 | 0.00 | 0.00 | 0.00 | 89 | 1011.2 |
| 20260505120059 | 57 | 144 | 0.0 | 4.0 | 0.00 | 0.00 | 0.00 | 91 | 1011.4 |
| 20260505114541 | 56 | 146 | 2.0 | 6.0 | 0.00 | 0.00 | 0.00 | 92 | 1011.5 |
| 20260505113045 | 55 | 151 | 0.0 | 3.0 | 0.00 | 0.00 | 0.00 | 93 | 1011.5 |
| 20260505111538 | 54 | 159 | 0.0 | 2.0 | 0.00 | 0.00 | 0.00 | 95 | 1011.4 |
| 20260505101534 | 53 | 159 | 0.0 | 3.0 | 0.00 | 0.00 | 0.00 | 94 | 1010.6 |
| 20260505100133 | 52 | 159 | 0.0 | 3.0 | 0.00 | 0.00 | 0.00 | 94 | 1010.5 |
| 20260505094531 | 52 | 159 | 0.0 | 2.0 | 0.00 | 0.00 | 0.00 | 93 | 1010.4 |
| 20260505093029 | 52 | 159 | 0.0 | 0.0 | 0.00 | 0.00 | 0.00 | 93 | 1010.5 |
| 20260505091528 | 53 | 159 | 0.0 | 1.0 | 0.00 | 0.00 | 0.00 | 93 | 1010.5 |
| 20260505090027 | 53 | 159 | 0.0 | 4.0 | 0.00 | 0.00 | 0.00 | 93 | 1010.6 |
| 20260505084541 | 53 | 159 | 0.0 | 1.0 | 0.00 | 0.00 | 0.00 | 92 | 1010.5 |
| 20260505083023 | 53 | 159 | 1.0 | 6.0 | 0.00 | 0.00 | 0.00 | 92 | 1010.4 |
| 20260505081523 | 53 | 164 | 0.0 | 3.0 | 0.00 | 0.00 | 0.00 | 92 | 1010.7 |
| 20260505080022 | 53 | 163 | 1.0 | 7.0 | 0.00 | 0.00 | 0.00 | 92 | 1010.6 |
| 20260505074521 | 53 | 171 | 0.0 | 3.0 | 0.00 | 0.00 | 0.00 | 92 | 1010.4 |
| 20260505073021 | 53 | 159 | 0.0 | 5.0 | 0.00 | 0.00 | 0.00 | 92 | 1010.5 |
| 20260505071520 | 53 | 157 | 0.0 | 5.0 | 0.00 | 0.00 | 0.00 | 91 | 1010.5 |
| 20260505070018 | 53 | 156 | 0.0 | 5.0 | 0.00 | 0.00 | 0.00 | 91 | 1010.4 |
| 20260505064519 | 54 | 168 | 0.0 | 3.0 | 0.00 | 0.00 | 0.00 | 91 | 1010.5 |
| 20260505063015 | 54 | 160 | 0.0 | 3.0 | 0.00 | 0.00 | 0.00 | 91 | 1010.6 |
| 20260505061519 | 54 | 150 | 0.0 | 5.0 | 0.00 | 0.00 | 0.00 | 91 | 1010.7 |
| 20260505060012 | 54 | 142 | 1.0 | 8.0 | 0.00 | 0.00 | 0.00 | 90 | 1010.8 |
| 20260505054510 | 54 | 161 | 1.0 | 7.0 | 0.00 | 0.00 | 0.00 | 90 | 1010.9 |
| 20260505053008 | 54 | 146 | 0.0 | 7.0 | 0.00 | 0.00 | 0.00 | 90 | 1011.0 |
| 20260505051515 | 54 | 144 | 0.0 | 6.0 | 0.00 | 0.00 | 0.00 | 89 | 1011.0 |
| 20260505041502 | 55 | 159 | 1.0 | 7.0 | 0.00 | 0.00 | 0.00 | 86 | 1011.3 |
| 20260505040059 | 55 | 153 | 0.0 | 7.0 | 0.00 | 0.00 | 0.00 | 85 | 1011.3 |
| 20260505034616 | 56 | 166 | 1.0 | 8.0 | 0.00 | 0.00 | 0.00 | 84 | 1011.2 |
| 20260505033057 | 56 | 157 | 0.0 | 8.0 | 0.00 | 0.00 | 0.00 | 83 | 1011.2 |
| 20260505031558 | 56 | 151 | 0.0 | 3.0 | 0.00 | 0.00 | 0.00 | 82 | 1011.3 |
| 20260505030056 | 56 | 155 | 0.0 | 5.0 | 0.00 | 0.00 | 0.00 | 83 | 1011.3 |
| 20260505024555 | 56 | 155 | 0.0 | 5.0 | 0.00 | 0.00 | 0.00 | 83 | 1011.4 |
| 20260505023058 | 56 | 169 | 0.0 | 6.0 | 0.00 | 0.00 | 0.00 | 82 | 1011.4 |
| 20260505021555 | 56 | 171 | 1.0 | 6.0 | 0.00 | 0.00 | 0.00 | 82 | 1011.5 |
| 20260505020058 | 56 | 159 | 1.0 | 7.0 | 0.00 | 0.00 | 0.00 | 83 | 1011.4 |
| 20260505014553 | 55 | 146 | 0.0 | 5.0 | 0.00 | 0.00 | 0.00 | 83 | 1011.4 |
| 20260505013053 | 56 | 155 | 1.0 | 7.0 | 0.00 | 0.00 | 0.00 | 82 | 1011.3 |
| 20260505011609 | 56 | 159 | 0.0 | 8.0 | 0.00 | 0.00 | 0.00 | 80 | 1011.1 |
| 20260505010153 | 56 | 165 | 1.0 | 8.0 | 0.00 | 0.00 | 0.00 | 79 | 1010.9 |
| 20260505004550 | 57 | 171 | 2.0 | 6.0 | 0.00 | 0.00 | 0.00 | 77 | 1010.7 |
| 20260505003053 | 57 | 155 | 3.0 | 7.0 | 0.00 | 0.00 | 0.00 | 76 | 1010.4 |
| 20260505001604 | 56 | 162 | 2.0 | 8.0 | 0.00 | 0.00 | 0.00 | 78 | 1010.2 |
| 20260505000104 | 56 | 169 | 4.0 | 10.0 | 0.00 | 0.00 | 0.00 | 79 | 1010.2 |
| 20260504234547 | 56 | 182 | 4.0 | 15.0 | 0.00 | 0.00 | 0.00 | 79 | 1009.9 |
| 20260504233102 | 56 | 173 | 3.0 | 21.0 | 0.00 | 0.00 | 0.00 | 79 | 1009.8 |
| 20260504231546 | 57 | 164 | 4.0 | 11.0 | 0.00 | 0.00 | 0.00 | 78 | 1009.9 |
| 20260504230046 | 57 | 177 | 4.0 | 14.0 | 0.00 | 0.00 | 0.00 | 77 | 1009.8 |